Time;durP1;ratioP1;P1;durP2;ratioP2;P2;SDS_P1;SDS_P2;PMS_P1;PMS_P2;Temp;Humidity;BMP_temperature;BMP_pressure;BME280_temperature;BME280_humidity;BME280_pressure;Samples;Min_cycle;Max_cycle;Signal;HPM_P1;HPM_P2
2024/03/08 00:01:31;;;;;;;5.50;3.00;;;;;;;-145.63;100.00;61273.97;5013797;28;20105;-65
2024/03/08 00:04:21;;;;;;;3.45;3.15;;;;;;;-145.63;100.00;61273.97;5010656;28;20030;-65
2024/03/08 00:06:47;;;;;;;5.50;3.20;;;;;;;-145.63;100.00;61273.97;4993841;28;20113;-64
2024/03/08 00:09:27;;;;;;;4.55;2.95;;;;;;;-145.63;100.00;61273.97;5012998;28;20069;-65
2024/03/08 00:11:52;;;;;;;3.78;3.10;;;;;;;-145.63;100.00;61273.97;4997582;28;20034;-65
2024/03/08 00:14:21;;;;;;;4.63;3.20;;;;;;;-145.63;100.00;61273.97;5006498;28;20042;-66
2024/03/08 00:17:38;;;;;;;4.45;3.53;;;;;;;-145.63;100.00;61273.97;5005581;28;20031;-65
2024/03/08 00:20:17;;;;;;;6.13;4.38;;;;;;;-145.63;100.00;61273.97;5005039;28;20030;-65
2024/03/08 00:22:46;;;;;;;8.95;4.88;;;;;;;-145.63;100.00;61273.97;5006834;28;20026;-65
2024/03/08 00:25:12;;;;;;;7.45;4.78;;;;;;;-145.63;100.00;61273.97;5011730;28;20414;-66
2024/03/08 00:27:41;;;;;;;7.50;4.78;;;;;;;-145.63;100.00;61273.97;5013254;28;20034;-65
2024/03/08 00:30:07;;;;;;;8.18;4.93;;;;;;;-145.63;100.00;61273.97;5013423;28;20064;-66
2024/03/08 00:32:51;;;;;;;7.40;5.50;;;;;;;-145.63;100.00;61273.97;4999638;28;20050;-65
2024/03/08 00:35:50;;;;;;;6.75;4.78;;;;;;;-145.63;100.00;61273.97;5001621;28;20027;-65
2024/03/08 00:38:22;;;;;;;7.75;5.57;;;;;;;-145.63;100.00;61273.97;5004625;28;20606;-66
2024/03/08 00:41:12;;;;;;;8.50;4.88;;;;;;;-145.63;100.00;61273.97;5005086;28;20035;-65
2024/03/08 00:43:56;;;;;;;7.65;5.22;;;;;;;-145.63;100.00;61273.97;5012659;28;20049;-65
2024/03/08 00:46:28;;;;;;;7.03;5.05;;;;;;;-145.63;100.00;61273.97;5013600;28;20033;-66
2024/03/08 00:51:56;;;;;;;7.13;5.45;;;;;;;-145.63;100.00;61273.97;5012083;28;20041;-65
2024/03/08 00:54:24;;;;;;;6.72;5.00;;;;;;;-145.63;100.00;61273.97;5012864;28;20029;-65
2024/03/08 00:57:11;;;;;;;6.85;5.32;;;;;;;-145.63;100.00;61273.97;5013090;28;20042;-65
2024/03/08 00:59:40;;;;;;;6.00;5.30;;;;;;;-145.63;100.00;61273.97;4999293;28;20490;-65
2024/03/08 01:02:27;;;;;;;6.65;5.03;;;;;;;-145.63;100.00;61273.97;5002415;28;20032;-64
2024/03/08 01:05:33;;;;;;;6.03;4.50;;;;;;;-145.63;100.00;61273.97;5011254;28;20030;-66
2024/03/08 01:08:20;;;;;;;6.05;4.90;;;;;;;-145.63;100.00;61273.97;5013071;28;20100;-66
2024/03/08 01:10:57;;;;;;;6.15;4.70;;;;;;;-145.63;100.00;61273.97;5006292;28;20030;-64
2024/03/08 01:13:29;;;;;;;9.57;4.45;;;;;;;-145.63;100.00;61273.97;5001321;28;20041;-68
2024/03/08 01:16:27;;;;;;;5.18;3.75;;;;;;;-145.63;100.00;61273.97;5007239;28;20037;-67
2024/03/08 01:19:11;;;;;;;5.80;4.38;;;;;;;-145.63;100.00;61273.97;5013186;28;20092;-66
2024/03/08 01:21:37;;;;;;;6.65;4.57;;;;;;;-145.63;100.00;61273.97;4996777;28;20341;-66
2024/03/08 01:24:03;;;;;;;5.57;4.40;;;;;;;-145.63;100.00;61273.97;5013221;28;20041;-66
2024/03/08 01:26:56;;;;;;;6.10;4.70;;;;;;;-145.63;100.00;61273.97;5016443;28;20088;-65
2024/03/08 01:29:29;;;;;;;6.95;4.50;;;;;;;-145.63;100.00;61273.97;5002778;28;20399;-66
2024/03/08 01:32:14;;;;;;;6.30;4.65;;;;;;;-145.63;100.00;61273.97;5001973;28;20034;-65
2024/03/08 01:34:58;;;;;;;5.07;4.45;;;;;;;-145.63;100.00;61273.97;5009657;28;20104;-66
2024/03/08 01:37:24;;;;;;;5.18;4.38;;;;;;;-145.63;100.00;61273.97;5011096;28;20357;-66
2024/03/08 01:39:50;;;;;;;6.97;5.15;;;;;;;-145.63;100.00;61273.97;4996752;28;20494;-65
2024/03/08 01:42:18;;;;;;;7.38;4.93;;;;;;;-145.63;100.00;61273.97;5013478;28;20030;-67
2024/03/08 01:44:54;;;;;;;5.53;4.38;;;;;;;-145.63;100.00;61273.97;5015406;28;20069;-66
2024/03/08 01:47:51;;;;;;;6.72;4.50;;;;;;;-145.63;100.00;61273.97;5015804;28;20053;-66
2024/03/08 01:50:39;;;;;;;7.65;5.28;;;;;;;-145.63;100.00;61273.97;5012115;28;20037;-66
2024/03/08 01:53:10;;;;;;;6.18;4.70;;;;;;;-145.63;100.00;61273.97;5014653;28;20045;-66
2024/03/08 01:55:36;;;;;;;5.43;4.35;;;;;;;-145.63;100.00;61273.97;5009300;28;20384;-66
2024/03/08 01:58:05;;;;;;;6.80;4.78;;;;;;;-145.63;100.00;61273.97;4996631;28;20113;-67
2024/03/08 02:00:32;;;;;;;7.75;5.28;;;;;;;-145.63;100.00;61273.97;5015679;28;20125;-64
2024/03/08 02:02:58;;;;;;;6.13;4.10;;;;;;;-145.63;100.00;61273.97;5009368;28;20041;-65
2024/03/08 02:05:45;;;;;;;6.70;4.43;;;;;;;-145.63;100.00;61273.97;5002460;28;20050;-65
2024/03/08 02:08:32;;;;;;;7.40;4.90;;;;;;;-145.63;100.00;61273.97;5007438;28;20038;-65
2024/03/08 02:11:07;;;;;;;5.40;4.60;;;;;;;-145.63;100.00;61273.97;5008327;28;20503;-66
2024/03/08 02:13:36;;;;;;;7.65;4.82;;;;;;;-145.63;100.00;61273.97;5004664;28;20091;-66
2024/03/08 02:16:07;;;;;;;7.47;5.13;;;;;;;-145.63;100.00;61273.97;5013596;28;20113;-67
2024/03/08 02:18:34;;;;;;;6.28;4.97;;;;;;;-145.63;100.00;61273.97;4996313;28;20368;-66
2024/03/08 02:21:08;;;;;;;6.55;4.68;;;;;;;-145.63;100.00;61273.97;5011709;28;20456;-66
2024/03/08 02:23:43;;;;;;;6.40;4.65;;;;;;;-145.63;100.00;61273.97;5012269;28;20064;-66
2024/03/08 02:26:09;;;;;;;7.80;5.00;;;;;;;-145.63;100.00;61273.97;5015528;28;20456;-65
2024/03/08 02:28:55;;;;;;;8.88;4.32;;;;;;;-145.63;100.00;61273.97;5010558;28;20364;-66
2024/03/08 02:31:30;;;;;;;6.18;4.35;;;;;;;-145.63;100.00;61273.97;4998295;28;20111;-66
2024/03/08 02:34:31;;;;;;;8.60;4.90;;;;;;;-145.63;100.00;61273.97;5012761;28;20061;-66
2024/03/08 02:36:57;;;;;;;8.23;4.43;;;;;;;-145.63;100.00;61273.97;5014818;28;20137;-67
2024/03/08 02:39:22;;;;;;;5.93;4.45;;;;;;;-145.63;100.00;61273.97;4995519;28;20509;-67
2024/03/08 02:41:57;;;;;;;5.18;4.40;;;;;;;-145.63;100.00;61273.97;5041191;28;20351;-65
2024/03/08 02:44:23;;;;;;;5.95;4.25;;;;;;;-145.63;100.00;61273.97;5014988;28;20109;-67
2024/03/08 02:46:50;;;;;;;8.63;5.18;;;;;;;-145.63;100.00;61273.97;5014867;28;20479;-66
2024/03/08 02:49:16;;;;;;;6.88;4.90;;;;;;;-145.63;100.00;61273.97;5013006;28;20489;-66
2024/03/08 02:51:41;;;;;;;7.30;4.90;;;;;;;-145.63;100.00;61273.97;4999790;28;20034;-66
2024/03/08 02:54:19;;;;;;;7.13;4.25;;;;;;;-145.63;100.00;61273.97;5006887;28;20442;-67
2024/03/08 02:56:50;;;;;;;8.15;4.85;;;;;;;-145.63;100.00;61273.97;5028500;28;20505;-67
2024/03/08 02:59:17;;;;;;;7.68;5.20;;;;;;;-145.63;100.00;61273.97;5034545;28;20029;-67
2024/03/08 03:01:43;;;;;;;6.20;4.50;;;;;;;-145.63;100.00;61273.97;5031337;28;20114;-67
2024/03/08 03:04:09;;;;;;;6.65;4.60;;;;;;;-145.63;100.00;61273.97;5014525;28;20034;-68
2024/03/08 03:06:35;;;;;;;7.43;4.70;;;;;;;-145.63;100.00;61273.97;5014605;28;20040;-68
2024/03/08 03:09:01;;;;;;;7.47;5.10;;;;;;;-145.63;100.00;61273.97;5014038;28;20105;-66
2024/03/08 03:11:27;;;;;;;6.28;4.75;;;;;;;-145.63;100.00;61273.97;5014307;28;20083;-68
2024/03/08 03:13:53;;;;;;;8.65;5.15;;;;;;;-145.63;100.00;61273.97;5010600;28;20396;-65
2024/03/08 03:16:19;;;;;;;6.00;5.32;;;;;;;-145.63;100.00;61273.97;5019906;28;20048;-67
2024/03/08 03:18:46;;;;;;;5.97;5.03;;;;;;;-145.63;100.00;61273.97;5018612;28;20467;-66
2024/03/08 03:21:43;;;;;;;6.80;5.18;;;;;;;-145.63;100.00;61273.97;5005572;28;20042;-67
2024/03/08 03:24:33;;;;;;;6.25;4.60;;;;;;;-145.63;100.00;61273.97;5022338;28;20028;-68
2024/03/08 03:30:20;;;;;;;7.63;5.40;;;;;;;-145.63;100.00;61273.97;5010650;28;20038;-67
2024/03/08 03:32:50;;;;;;;7.03;4.97;;;;;;;-145.63;100.00;61273.97;5010040;28;20129;-66
2024/03/08 03:35:18;;;;;;;6.88;5.35;;;;;;;-145.63;100.00;61273.97;5007452;28;20118;-65
2024/03/08 03:40:29;;;;;;;8.13;5.78;;;;;;;-145.63;100.00;61273.97;5009669;28;20033;-65
2024/03/08 03:46:23;;;;;;;8.13;5.43;;;;;;;-145.63;100.00;61273.97;4996071;28;20121;-67
2024/03/08 03:48:49;;;;;;;8.23;6.10;;;;;;;-145.63;100.00;61273.97;5014288;28;20045;-68
2024/03/08 03:51:21;;;;;;;6.90;5.18;;;;;;;-145.63;100.00;61273.97;5015366;28;20348;-65
2024/03/08 03:53:53;;;;;;;6.68;4.90;;;;;;;-145.63;100.00;61273.97;5009625;28;20537;-67
2024/03/08 03:56:19;;;;;;;9.05;5.28;;;;;;;-145.63;100.00;61273.97;5013678;28;20080;-68
2024/03/08 03:58:44;;;;;;;7.90;5.30;;;;;;;-145.63;100.00;61273.97;5013642;28;20042;-66
2024/03/08 04:01:10;;;;;;;6.00;5.07;;;;;;;-145.63;100.00;61273.97;5013286;28;20030;-69
2024/03/08 04:03:36;;;;;;;6.90;4.72;;;;;;;-145.63;100.00;61273.97;5003507;28;20037;-67
2024/03/08 04:06:54;;;;;;;8.20;4.85;;;;;;;-145.63;100.00;61273.97;5008589;28;20033;-66
2024/03/08 04:12:51;;;;;;;5.78;4.80;;;;;;;-145.63;100.00;61273.97;5013273;28;20060;-66
2024/03/08 04:15:16;;;;;;;5.88;4.72;;;;;;;-145.63;100.00;61273.97;5000721;28;20034;-66
2024/03/08 04:17:42;;;;;;;6.63;5.20;;;;;;;-145.63;100.00;61273.97;5004392;28;20037;-67
2024/03/08 04:20:14;;;;;;;8.25;6.13;;;;;;;-145.63;100.00;61273.97;5013494;28;20110;-66
2024/03/08 04:22:40;;;;;;;6.35;5.28;;;;;;;-145.63;100.00;61273.97;5009648;28;20045;-66
2024/03/08 04:25:30;;;;;;;6.93;4.97;;;;;;;-145.63;100.00;61273.97;4996543;28;20037;-68
2024/03/08 04:28:42;;;;;;;6.82;5.32;;;;;;;-145.63;100.00;61273.97;4994536;28;20211;-66
2024/03/08 04:31:21;;;;;;;8.13;5.65;;;;;;;-145.63;100.00;61273.97;5005300;28;20034;-67
2024/03/08 04:33:47;;;;;;;7.80;6.00;;;;;;;-145.63;100.00;61273.97;5013156;28;20513;-67
2024/03/08 04:36:13;;;;;;;7.57;5.75;;;;;;;-145.63;100.00;61273.97;5005622;28;20124;-65
2024/03/08 04:38:45;;;;;;;9.45;6.55;;;;;;;-145.63;100.00;61273.97;5013874;28;20034;-66
2024/03/08 04:41:37;;;;;;;8.82;6.53;;;;;;;-145.63;100.00;61273.97;5013125;28;20044;-66
2024/03/08 04:44:55;;;;;;;9.73;6.53;;;;;;;-145.63;100.00;61273.97;5000469;28;20093;-66
2024/03/08 04:47:26;;;;;;;9.32;6.63;;;;;;;-145.63;100.00;61273.97;5001631;28;20026;-67
2024/03/08 04:49:58;;;;;;;8.80;6.30;;;;;;;-145.63;100.00;61273.97;5015695;28;20022;-67
2024/03/08 04:52:23;;;;;;;9.55;6.38;;;;;;;-145.63;100.00;61273.97;5003451;28;20518;-67
2024/03/08 04:55:05;;;;;;;9.05;6.63;;;;;;;-145.63;100.00;61273.97;5015273;28;20116;-67
2024/03/08 04:57:58;;;;;;;10.27;6.97;;;;;;;-145.63;100.00;61273.97;5017086;28;20364;-68
2024/03/08 05:00:47;;;;;;;11.05;7.53;;;;;;;-145.63;100.00;61273.97;4999120;28;20038;-66
2024/03/08 05:03:31;;;;;;;11.35;7.88;;;;;;;-145.63;100.00;61273.97;5013848;28;20367;-67
2024/03/08 05:06:03;;;;;;;;;;;;;;;-145.63;100.00;61273.97;5003570;28;20042;-66
2024/03/08 05:08:31;;;;;;;10.70;7.53;;;;;;;-145.63;100.00;61273.97;5009406;28;19948;-66
2024/03/08 05:11:03;;;;;;;10.63;7.80;;;;;;;-145.63;100.00;61273.97;5009806;28;20042;-68
2024/03/08 05:13:30;;;;;;;10.63;8.02;;;;;;;-145.63;100.00;61273.97;4998849;28;20034;-68
2024/03/08 05:15:58;;;;;;;12.27;8.02;;;;;;;-145.63;100.00;61273.97;5016727;28;20112;-67
2024/03/08 05:18:28;;;;;;;10.75;8.18;;;;;;;-145.63;100.00;61273.97;5015657;28;20033;-68
2024/03/08 05:20:59;;;;;;;10.43;7.85;;;;;;;-145.63;100.00;61273.97;5016470;28;20553;-69
2024/03/08 05:23:29;;;;;;;10.27;7.50;;;;;;;-145.63;100.00;61273.97;5014862;28;20495;-66
2024/03/08 05:26:06;;;;;;;9.85;7.60;;;;;;;-145.63;100.00;61273.97;5016503;28;20399;-68
2024/03/08 05:28:38;;;;;;;10.75;8.02;;;;;;;-145.63;100.00;61273.97;5014265;28;20034;-67
2024/03/08 05:31:24;;;;;;;;;;;;;;;-145.63;100.00;61273.97;4997375;28;20034;-68
2024/03/08 05:34:21;;;;;;;9.00;7.20;;;;;;;-145.63;100.00;61273.97;4996693;28;19918;-68
2024/03/08 05:36:49;;;;;;;10.57;7.82;;;;;;;-145.63;100.00;61273.97;4996735;28;20472;-66
2024/03/08 05:39:15;;;;;;;13.13;8.30;;;;;;;-145.63;100.00;61273.97;5028865;28;20048;-68
2024/03/08 05:41:42;;;;;;;12.52;8.20;;;;;;;-145.63;100.00;61273.97;5023498;28;20030;-68
2024/03/08 05:44:08;;;;;;;11.15;8.25;;;;;;;-145.63;100.00;61273.97;5008596;28;20042;-67
2024/03/08 05:46:35;;;;;;;10.10;7.95;;;;;;;-145.63;100.00;61273.97;5014884;28;20038;-66
2024/03/08 05:49:05;;;;;;;9.90;7.53;;;;;;;-145.63;100.00;61273.97;5015872;28;20045;-67
2024/03/08 05:51:35;;;;;;;10.13;7.70;;;;;;;-145.63;100.00;61273.97;5013470;28;20103;-66
2024/03/08 05:54:09;;;;;;;11.90;7.68;;;;;;;-145.63;100.00;61273.97;5015697;28;20020;-66
2024/03/08 05:56:36;;;;;;;8.85;7.10;;;;;;;-145.63;100.00;61273.97;5015959;28;20061;-66
2024/03/08 05:59:02;;;;;;;10.18;7.50;;;;;;;-145.63;100.00;61273.97;5015516;28;20037;-67
2024/03/08 06:01:36;;;;;;;9.93;7.72;;;;;;;-145.63;100.00;61273.97;5014180;28;20033;-67
2024/03/08 06:07:20;;;;;;;10.70;8.05;;;;;;;-145.63;100.00;61273.97;5009566;28;20034;-66
2024/03/08 06:09:49;;;;;;;9.07;7.25;;;;;;;-145.63;100.00;61273.97;5015906;28;20034;-66
2024/03/08 06:12:28;;;;;;;8.57;7.25;;;;;;;-145.63;100.00;61273.97;5011061;28;20122;-67
2024/03/08 06:14:54;;;;;;;9.23;7.25;;;;;;;-145.63;100.00;61273.97;5013231;28;20033;-71
2024/03/08 06:17:25;;;;;;;8.43;6.50;;;;;;;-145.63;100.00;61273.97;5007371;28;20034;-68
2024/03/08 06:19:52;;;;;;;8.75;7.18;;;;;;;-145.63;100.00;61273.97;5010637;28;20464;-67
2024/03/08 06:22:36;;;;;;;10.50;7.32;;;;;;;-145.63;100.00;61273.97;5012695;28;20034;-67
2024/03/08 06:25:04;;;;;;;8.38;6.63;;;;;;;-145.63;100.00;61273.97;5015086;28;21377;-66
2024/03/08 06:27:55;;;;;;;10.82;7.28;;;;;;;-145.63;100.00;61273.97;5012269;28;20553;-66
2024/03/08 06:30:31;;;;;;;10.25;7.43;;;;;;;-145.63;100.00;61273.97;5014936;28;20045;-66
2024/03/08 06:32:56;;;;;;;10.23;7.70;;;;;;;-145.63;100.00;61273.97;5013615;28;20069;-66
2024/03/08 06:35:22;;;;;;;10.88;7.18;;;;;;;-145.63;100.00;61273.97;5014130;28;20037;-66
2024/03/08 06:37:48;;;;;;;11.43;8.13;;;;;;;-145.63;100.00;61273.97;5013874;28;20514;-67
2024/03/08 06:40:37;;;;;;;10.82;7.03;;;;;;;-145.63;100.00;61273.97;5012672;28;20037;-66
2024/03/08 06:43:15;;;;;;;11.50;7.38;;;;;;;-145.63;100.00;61273.97;5011988;28;20420;-66
2024/03/08 06:45:57;;;;;;;11.85;7.25;;;;;;;-145.63;100.00;61273.97;5013615;28;20049;-65
2024/03/08 06:48:23;;;;;;;10.85;7.68;;;;;;;-145.63;100.00;61273.97;5011345;28;20064;-68
2024/03/08 06:54:09;;;;;;;11.18;7.35;;;;;;;-145.63;100.00;61273.97;5012825;28;20026;-68
2024/03/08 06:56:53;;;;;;;10.52;7.13;;;;;;;-145.63;100.00;61273.97;5013401;28;20022;-67
2024/03/08 07:02:24;;;;;;;9.15;7.43;;;;;;;-145.63;100.00;61273.97;5014060;28;20467;-69
2024/03/08 07:04:58;;;;;;;10.38;6.93;;;;;;;-145.63;100.00;61273.97;5011828;28;20061;-65
2024/03/08 07:07:27;;;;;;;10.50;6.60;;;;;;;-145.63;100.00;61273.97;5012986;28;20038;-67
2024/03/08 07:10:02;;;;;;;11.45;8.02;;;;;;;-145.63;100.00;61273.97;5011886;28;20029;-66
2024/03/08 07:12:58;;;;;;;10.32;7.28;;;;;;;-145.63;100.00;61273.97;5011919;28;20437;-68
2024/03/08 07:15:52;;;;;;;10.07;6.85;;;;;;;-145.63;100.00;61273.97;5013295;28;20021;-69
2024/03/08 07:18:36;;;;;;;9.77;7.13;;;;;;;-145.63;100.00;61273.97;5012465;28;20109;-69
2024/03/08 07:21:41;;;;;;;10.63;7.20;;;;;;;-145.63;100.00;61273.97;5013018;28;20034;-68
2024/03/08 07:25:17;;;;;;;11.55;7.80;;;;;;;-145.63;100.00;61273.97;5012528;28;20030;-67
2024/03/08 07:27:45;;;;;;;10.23;7.30;;;;;;;-145.63;100.00;61273.97;5013968;28;20034;-66
2024/03/08 07:36:01;;;;;;;11.95;7.45;;;;;;;-145.63;100.00;61273.97;5009609;28;20031;-66
2024/03/08 07:38:30;;;;;;;12.32;8.07;;;;;;;-145.63;100.00;61273.97;5012413;28;20073;-66
2024/03/08 07:41:01;;;;;;;10.30;7.25;;;;;;;-145.63;100.00;61273.97;5014228;28;20034;-67
2024/03/08 07:43:27;;;;;;;10.05;7.47;;;;;;;-145.63;100.00;61273.97;5013505;28;20036;-66
2024/03/08 07:46:02;;;;;;;12.77;8.07;;;;;;;-145.63;100.00;61273.97;4994726;28;20026;-67
2024/03/08 07:48:27;;;;;;;8.93;6.97;;;;;;;-145.63;100.00;61273.97;5027555;28;20033;-65
2024/03/08 07:51:03;;;;;;;10.20;7.63;;;;;;;-145.63;100.00;61273.97;5022014;28;20526;-64
2024/03/08 07:54:00;;;;;;;9.07;6.97;;;;;;;-145.63;100.00;61273.97;5013678;28;20026;-66
2024/03/08 07:56:40;;;;;;;9.18;7.00;;;;;;;-145.63;100.00;61273.97;5012434;28;20041;-67
2024/03/08 07:59:46;;;;;;;9.77;7.43;;;;;;;-145.63;100.00;61273.97;5013735;28;20446;-67
2024/03/08 08:02:30;;;;;;;9.23;7.80;;;;;;;-145.63;100.00;61273.97;5006349;28;20034;-68
2024/03/08 08:05:51;;;;;;;9.60;7.25;;;;;;;-145.63;100.00;61273.97;5001038;28;20064;-66
2024/03/08 08:08:20;;;;;;;9.05;6.68;;;;;;;-145.63;100.00;61273.97;5013285;28;20022;-66
2024/03/08 08:11:06;;;;;;;9.73;7.25;;;;;;;-145.63;100.00;61273.97;5010968;28;20423;-67
2024/03/08 08:13:56;;;;;;;10.27;7.45;;;;;;;-145.63;100.00;61273.97;5001124;28;20093;-67
2024/03/08 08:16:45;;;;;;;10.10;7.18;;;;;;;-145.63;100.00;61273.97;5013311;28;20045;-67
2024/03/08 08:19:11;;;;;;;11.27;7.25;;;;;;;-145.63;100.00;61273.97;4993798;28;20030;-66
2024/03/08 08:21:37;;;;;;;8.88;6.55;;;;;;;-145.63;100.00;61273.97;4993866;28;20026;-66
2024/03/08 08:24:24;;;;;;;9.18;7.13;;;;;;;-145.63;100.00;61273.97;5006615;28;20471;-66
2024/03/08 08:27:09;;;;;;;8.07;6.57;;;;;;;-145.63;100.00;61273.97;5027548;28;20044;-66
2024/03/08 08:29:40;;;;;;;10.70;7.68;;;;;;;-145.63;100.00;61273.97;5024317;28;20033;-66
2024/03/08 08:32:18;;;;;;;11.43;7.28;;;;;;;-145.63;100.00;61273.97;5007946;28;20519;-66
2024/03/08 08:34:44;;;;;;;12.30;7.57;;;;;;;-145.63;100.00;61273.97;4995761;28;20061;-69
2024/03/08 08:37:28;;;;;;;11.75;7.70;;;;;;;-145.63;100.00;61273.97;5013326;28;20118;-66
2024/03/08 08:40:08;;;;;;;13.98;7.85;;;;;;;-145.63;100.00;61273.97;4993663;28;20034;-66
2024/03/08 08:43:11;;;;;;;8.13;6.65;;;;;;;-145.63;100.00;61273.97;5010934;28;20091;-66
2024/03/08 08:45:50;;;;;;;10.93;7.47;;;;;;;-145.63;100.00;61273.97;5011497;28;20026;-68
2024/03/08 08:48:36;;;;;;;9.65;7.18;;;;;;;-145.63;100.00;61273.97;5028580;28;20068;-67
2024/03/08 08:51:02;;;;;;;10.88;7.97;;;;;;;-145.63;100.00;61273.97;5020781;28;20099;-67
2024/03/08 08:53:48;;;;;;;9.88;7.25;;;;;;;-145.63;100.00;61273.97;5014102;28;20471;-68
2024/03/08 08:56:15;;;;;;;11.55;7.95;;;;;;;-145.63;100.00;61273.97;5005209;28;20646;-69
2024/03/08 08:58:48;;;;;;;9.48;7.57;;;;;;;-145.63;100.00;61273.97;4993803;28;20030;-67
2024/03/08 09:04:32;;;;;;;10.27;6.88;;;;;;;-145.63;100.00;61273.97;5012848;28;20033;-68
2024/03/08 09:07:35;;;;;;;10.27;7.10;;;;;;;-145.63;100.00;61273.97;4992351;28;20098;-66
2024/03/08 09:13:04;;;;;;;8.90;7.10;;;;;;;-145.63;100.00;61273.97;4995471;28;20027;-67
2024/03/08 09:15:40;;;;;;;8.93;7.13;;;;;;;-145.63;100.00;61273.97;5012825;28;20080;-66
2024/03/08 09:22:03;;;;;;;9.02;7.10;;;;;;;-145.63;100.00;61273.97;5009476;28;20502;-67
2024/03/08 09:24:53;;;;;;;10.70;7.10;;;;;;;-145.63;100.00;61273.97;4995271;28;20033;-65
2024/03/08 09:27:37;;;;;;;9.00;7.03;;;;;;;-145.63;100.00;61273.97;5008030;28;20038;-68
2024/03/08 09:33:52;;;;;;;10.70;6.97;;;;;;;-145.63;100.00;61273.97;5010615;28;20060;-65
2024/03/08 09:39:33;;;;;;;9.90;7.32;;;;;;;-145.63;100.00;61273.97;5025313;28;20061;-65
2024/03/08 09:42:47;;;;;;;9.00;6.70;;;;;;;-145.63;100.00;61273.97;5022021;28;20026;-66
2024/03/08 09:45:23;;;;;;;8.73;6.53;;;;;;;-145.63;100.00;61273.97;5016089;28;20038;-64
2024/03/08 09:48:14;;;;;;;8.65;6.63;;;;;;;-145.63;100.00;61273.97;5004774;28;20034;-65
2024/03/08 09:54:44;;;;;;;9.40;6.30;;;;;;;-145.63;100.00;61273.97;5027036;28;20045;-65
2024/03/08 09:57:10;;;;;;;9.23;7.15;;;;;;;-145.63;100.00;61273.97;5008238;28;20057;-64
2024/03/08 10:02:02;;;;;;;10.55;7.75;;;;;;;-145.63;100.00;61273.97;5016398;28;20392;-68
2024/03/08 10:04:33;;;;;;;8.50;6.80;;;;;;;-145.63;100.00;61273.97;4997538;28;20261;-64
2024/03/08 10:10:08;;;;;;;12.18;6.70;;;;;;;-145.63;100.00;61273.97;4997612;28;20040;-65
2024/03/08 10:12:42;;;;;;;7.15;6.00;;;;;;;-145.63;100.00;61273.97;5012884;28;20061;-65
2024/03/08 10:15:12;;;;;;;7.50;6.13;;;;;;;-145.63;100.00;61273.97;5016035;28;20062;-66
2024/03/08 10:17:46;;;;;;;7.35;5.88;;;;;;;-145.63;100.00;61273.97;5015803;28;20041;-65
2024/03/08 10:20:18;;;;;;;8.65;6.57;;;;;;;-145.63;100.00;61273.97;5015445;28;20052;-66
2024/03/08 10:22:57;;;;;;;9.90;6.30;;;;;;;-145.63;100.00;61273.97;5012667;28;20037;-65
2024/03/08 10:25:51;;;;;;;7.03;6.03;;;;;;;-145.63;100.00;61273.97;4997066;28;20128;-65
2024/03/08 10:28:32;;;;;;;7.65;6.00;;;;;;;-145.63;100.00;61273.97;4998326;28;20041;-65
2024/03/08 10:31:03;;;;;;;7.85;5.65;;;;;;;-145.63;100.00;61273.97;4995750;28;20165;-66
2024/03/08 10:33:35;;;;;;;10.55;6.82;;;;;;;-145.63;100.00;61273.97;4993994;28;20136;-65
2024/03/08 10:36:22;;;;;;;6.97;5.78;;;;;;;-145.63;100.00;61273.97;5013493;28;20076;-65
2024/03/08 10:39:07;;;;;;;8.80;6.30;;;;;;;-145.63;100.00;61273.97;5005738;28;20022;-66
2024/03/08 10:42:01;;;;;;;8.10;6.43;;;;;;;-145.63;100.00;61273.97;5012473;28;20104;-66
2024/03/08 10:45:07;;;;;;;7.65;6.25;;;;;;;-145.63;100.00;61273.97;5026889;28;20029;-67
2024/03/08 10:47:48;;;;;;;8.77;6.10;;;;;;;-145.63;100.00;61273.97;5006974;28;20034;-67
2024/03/08 10:50:25;;;;;;;8.15;6.15;;;;;;;-145.63;100.00;61273.97;5012696;28;20120;-68
2024/03/08 10:53:01;;;;;;;7.03;6.18;;;;;;;-145.63;100.00;61273.97;5015738;28;20380;-66
2024/03/08 10:55:40;;;;;;;6.90;6.13;;;;;;;-145.63;100.00;61273.97;4994778;28;20034;-64
2024/03/08 10:58:11;;;;;;;9.85;6.40;;;;;;;-145.63;100.00;61273.97;4994997;28;20038;-65
2024/03/08 11:00:37;;;;;;;8.60;6.95;;;;;;;-145.63;100.00;61273.97;5010851;28;20038;-65
2024/03/08 11:03:40;;;;;;;9.02;6.47;;;;;;;-145.63;100.00;61273.97;5000369;28;20038;-66
2024/03/08 11:06:28;;;;;;;8.40;7.00;;;;;;;-145.63;100.00;61273.97;5006655;28;20038;-66
2024/03/08 11:09:00;;;;;;;9.23;6.90;;;;;;;-145.63;100.00;61273.97;5003983;28;20053;-66
2024/03/08 11:11:42;;;;;;;11.00;8.48;;;;;;;-145.63;100.00;61273.97;5007756;28;20079;-66
2024/03/08 11:14:54;;;;;;;9.02;6.78;;;;;;;-145.63;100.00;61273.97;5027861;28;20026;-65
2024/03/08 11:17:47;;;;;;;8.23;6.00;;;;;;;-145.63;100.00;61273.97;5008659;28;20034;-66
2024/03/08 11:20:35;;;;;;;8.82;6.57;;;;;;;-145.63;100.00;61273.97;4996201;28;20034;-65
2024/03/08 11:23:10;;;;;;;10.55;7.20;;;;;;;-145.63;100.00;61273.97;4998619;28;20513;-65
2024/03/08 11:25:44;;;;;;;7.10;5.75;;;;;;;-145.63;100.00;61273.97;5012408;28;20026;-63
2024/03/08 11:28:18;;;;;;;9.55;6.90;;;;;;;-145.63;100.00;61273.97;4999166;28;20037;-66
2024/03/08 11:31:09;;;;;;;9.55;7.38;;;;;;;-145.63;100.00;61273.97;4998146;28;20026;-66
2024/03/08 11:33:43;;;;;;;12.40;8.05;;;;;;;-145.63;100.00;61273.97;4996117;28;20428;-65
2024/03/08 11:36:35;;;;;;;11.25;8.15;;;;;;;-145.63;100.00;61273.97;5012908;28;20037;-65
2024/03/08 11:39:38;;;;;;;12.27;8.88;;;;;;;-145.63;100.00;61273.97;5004134;28;20038;-66
2024/03/08 11:42:04;;;;;;;15.00;8.30;;;;;;;-145.63;100.00;61273.97;5011828;28;20364;-64
2024/03/08 11:44:31;;;;;;;13.63;8.93;;;;;;;-145.63;100.00;61273.97;5020512;28;20052;-65
2024/03/08 11:47:00;;;;;;;12.73;8.98;;;;;;;-145.63;100.00;61273.97;5017023;28;20066;-66
2024/03/08 11:49:25;;;;;;;12.80;9.63;;;;;;;-145.63;100.00;61273.97;5014999;28;20113;-64
2024/03/08 11:52:16;;;;;;;14.10;9.10;;;;;;;-145.63;100.00;61273.97;5030167;28;20113;-65
2024/03/08 11:55:25;;;;;;;11.43;8.65;;;;;;;-145.63;100.00;61273.97;5016384;28;20472;-63
2024/03/08 12:01:12;;;;;;;10.32;7.63;;;;;;;-145.63;100.00;61273.97;5033054;28;20167;-64
2024/03/08 12:03:44;;;;;;;12.90;9.10;;;;;;;-145.63;100.00;61273.97;5016234;28;20139;-64
2024/03/08 12:06:51;;;;;;;10.07;8.20;;;;;;;-145.63;100.00;61273.97;5008933;28;20048;-63
2024/03/08 12:12:18;;;;;;;14.00;8.45;;;;;;;-145.63;100.00;61273.97;5008909;28;20129;-64
2024/03/08 12:15:40;;;;;;;15.50;9.90;;;;;;;-145.63;100.00;61273.97;5016863;28;20029;-64
2024/03/08 12:18:21;;;;;;;9.50;7.47;;;;;;;-145.63;100.00;61273.97;5012088;28;20048;-65
2024/03/08 12:21:07;;;;;;;11.03;8.30;;;;;;;-145.63;100.00;61273.97;5013303;28;20044;-64
2024/03/08 12:26:42;;;;;;;20.13;13.77;;;;;;;-145.63;100.00;61273.97;5027285;22;20041;-64
2024/03/08 12:29:28;;;;;;;12.65;8.60;;;;;;;-145.63;100.00;61273.97;5045012;28;20044;-63
2024/03/08 12:32:23;;;;;;;17.35;9.85;;;;;;;-145.63;100.00;61273.97;5056340;28;20112;-63
2024/03/08 12:34:53;;;;;;;11.02;8.45;;;;;;;-145.63;100.00;61273.97;5042698;28;20404;-62
2024/03/08 12:37:19;;;;;;;13.45;8.85;;;;;;;-145.63;100.00;61273.97;5049841;28;20037;-62
2024/03/08 12:40:06;;;;;;;14.77;9.27;;;;;;;-145.63;100.00;61273.97;5052207;28;20025;-63
2024/03/08 12:42:57;;;;;;;12.70;8.77;;;;;;;-145.63;100.00;61273.97;5055034;28;20033;-62
2024/03/08 12:45:26;;;;;;;14.27;8.73;;;;;;;-145.63;100.00;61273.97;5052225;28;20036;-63
2024/03/08 12:48:11;;;;;;;18.83;10.13;;;;;;;-145.63;100.00;61273.97;5052468;28;20033;-64
2024/03/08 12:50:55;;;;;;;12.93;8.55;;;;;;;-145.63;100.00;61273.97;5065075;28;20047;-63
2024/03/08 12:53:22;;;;;;;11.68;8.57;;;;;;;-145.63;100.00;61273.97;5055854;28;20032;-64
2024/03/08 12:55:56;;;;;;;12.82;8.40;;;;;;;-145.63;100.00;61273.97;5053570;28;20033;-64
2024/03/08 12:58:31;;;;;;;9.52;7.63;;;;;;;-145.63;100.00;61273.97;5072947;28;20033;-65
2024/03/08 13:01:37;;;;;;;11.80;8.27;;;;;;;-145.63;100.00;61273.97;5033490;28;20060;-64